sensor_id;sensor_type;location;lat;lon;timestamp;P1;durP1;ratioP1;P2;durP2;ratioP2
36411;SDS011;22445;52.100;5.176;2023-08-06T00:00:24;10.50;;;9.30;;
36411;SDS011;22445;52.100;5.176;2023-08-06T00:02:49;12.43;;;9.93;;
36411;SDS011;22445;52.100;5.176;2023-08-06T00:05:15;15.60;;;9.68;;
36411;SDS011;22445;52.100;5.176;2023-08-06T00:07:49;11.95;;;9.75;;
36411;SDS011;22445;52.100;5.176;2023-08-06T00:10:15;12.18;;;9.63;;
36411;SDS011;22445;52.100;5.176;2023-08-06T00:12:42;11.95;;;9.43;;
36411;SDS011;22445;52.100;5.176;2023-08-06T00:15:09;12.95;;;10.35;;
36411;SDS011;22445;52.100;5.176;2023-08-06T00:17:35;11.10;;;9.45;;
36411;SDS011;22445;52.100;5.176;2023-08-06T00:20:01;12.40;;;10.25;;
36411;SDS011;22445;52.100;5.176;2023-08-06T00:22:40;13.90;;;10.38;;
36411;SDS011;22445;52.100;5.176;2023-08-06T00:25:05;10.77;;;9.45;;
36411;SDS011;22445;52.100;5.176;2023-08-06T00:27:31;13.57;;;10.43;;
36411;SDS011;22445;52.100;5.176;2023-08-06T00:30:00;11.57;;;9.73;;
36411;SDS011;22445;52.100;5.176;2023-08-06T00:32:25;14.32;;;9.68;;
36411;SDS011;22445;52.100;5.176;2023-08-06T00:34:51;12.63;;;10.63;;
36411;SDS011;22445;52.100;5.176;2023-08-06T00:37:17;12.57;;;8.68;;
36411;SDS011;22445;52.100;5.176;2023-08-06T00:39:43;11.43;;;9.43;;
36411;SDS011;22445;52.100;5.176;2023-08-06T00:42:09;11.98;;;9.15;;
36411;SDS011;22445;52.100;5.176;2023-08-06T00:44:36;10.48;;;8.90;;
36411;SDS011;22445;52.100;5.176;2023-08-06T00:47:02;9.70;;;8.43;;
36411;SDS011;22445;52.100;5.176;2023-08-06T00:49:28;12.75;;;8.35;;
36411;SDS011;22445;52.100;5.176;2023-08-06T00:51:54;11.38;;;9.15;;
36411;SDS011;22445;52.100;5.176;2023-08-06T00:54:20;11.18;;;8.75;;
36411;SDS011;22445;52.100;5.176;2023-08-06T00:56:45;9.95;;;8.95;;
36411;SDS011;22445;52.100;5.176;2023-08-06T00:59:11;9.55;;;8.35;;
36411;SDS011;22445;52.100;5.176;2023-08-06T01:01:38;13.40;;;8.10;;
36411;SDS011;22445;52.100;5.176;2023-08-06T01:04:03;9.38;;;8.13;;
36411;SDS011;22445;52.100;5.176;2023-08-06T01:06:39;10.93;;;9.07;;
36411;SDS011;22445;52.100;5.176;2023-08-06T01:15:22;10.02;;;7.22;;
36411;SDS011;22445;52.100;5.176;2023-08-06T01:17:50;10.05;;;7.70;;
36411;SDS011;22445;52.100;5.176;2023-08-06T01:20:16;10.88;;;7.75;;
36411;SDS011;22445;52.100;5.176;2023-08-06T01:25:16;9.73;;;8.05;;
36411;SDS011;22445;52.100;5.176;2023-08-06T01:36:14;8.82;;;7.70;;
36411;SDS011;22445;52.100;5.176;2023-08-06T01:38:41;9.13;;;7.70;;
36411;SDS011;22445;52.100;5.176;2023-08-06T01:41:06;8.82;;;7.10;;
36411;SDS011;22445;52.100;5.176;2023-08-06T01:43:32;10.77;;;7.15;;
36411;SDS011;22445;52.100;5.176;2023-08-06T01:45:58;10.38;;;7.32;;
36411;SDS011;22445;52.100;5.176;2023-08-06T01:48:24;10.52;;;7.13;;
36411;SDS011;22445;52.100;5.176;2023-08-06T01:50:49;10.63;;;7.55;;
36411;SDS011;22445;52.100;5.176;2023-08-06T01:53:15;7.95;;;7.10;;
36411;SDS011;22445;52.100;5.176;2023-08-06T01:55:41;9.13;;;7.07;;
36411;SDS011;22445;52.100;5.176;2023-08-06T01:58:07;10.48;;;7.53;;
36411;SDS011;22445;52.100;5.176;2023-08-06T02:00:32;8.43;;;7.57;;
36411;SDS011;22445;52.100;5.176;2023-08-06T02:02:58;7.80;;;6.63;;
36411;SDS011;22445;52.100;5.176;2023-08-06T02:05:23;8.35;;;7.47;;
36411;SDS011;22445;52.100;5.176;2023-08-06T02:07:49;9.07;;;6.97;;
36411;SDS011;22445;52.100;5.176;2023-08-06T02:10:15;9.60;;;6.93;;
36411;SDS011;22445;52.100;5.176;2023-08-06T02:12:40;9.40;;;8.07;;
36411;SDS011;22445;52.100;5.176;2023-08-06T02:15:06;9.07;;;7.13;;
36411;SDS011;22445;52.100;5.176;2023-08-06T02:17:32;8.30;;;7.40;;
36411;SDS011;22445;52.100;5.176;2023-08-06T02:19:57;8.60;;;7.18;;
36411;SDS011;22445;52.100;5.176;2023-08-06T02:22:23;8.02;;;6.93;;
36411;SDS011;22445;52.100;5.176;2023-08-06T02:24:49;10.13;;;7.20;;
36411;SDS011;22445;52.100;5.176;2023-08-06T02:27:14;9.27;;;7.70;;
36411;SDS011;22445;52.100;5.176;2023-08-06T02:29:40;8.68;;;6.80;;
36411;SDS011;22445;52.100;5.176;2023-08-06T02:32:06;10.05;;;7.63;;
36411;SDS011;22445;52.100;5.176;2023-08-06T02:34:32;9.57;;;7.82;;
36411;SDS011;22445;52.100;5.176;2023-08-06T02:36:58;8.10;;;7.13;;
36411;SDS011;22445;52.100;5.176;2023-08-06T02:39:24;11.95;;;8.30;;
36411;SDS011;22445;52.100;5.176;2023-08-06T02:41:49;8.15;;;7.30;;
36411;SDS011;22445;52.100;5.176;2023-08-06T02:44:15;11.77;;;7.35;;
36411;SDS011;22445;52.100;5.176;2023-08-06T02:46:40;9.45;;;7.95;;
36411;SDS011;22445;52.100;5.176;2023-08-06T02:49:06;9.02;;;8.10;;
36411;SDS011;22445;52.100;5.176;2023-08-06T02:51:32;10.23;;;8.02;;
36411;SDS011;22445;52.100;5.176;2023-08-06T02:53:58;11.18;;;8.45;;
36411;SDS011;22445;52.100;5.176;2023-08-06T02:56:23;10.55;;;8.52;;
36411;SDS011;22445;52.100;5.176;2023-08-06T02:58:49;10.05;;;8.27;;
36411;SDS011;22445;52.100;5.176;2023-08-06T03:01:15;9.43;;;8.07;;
36411;SDS011;22445;52.100;5.176;2023-08-06T03:03:40;10.55;;;8.90;;
36411;SDS011;22445;52.100;5.176;2023-08-06T03:06:06;7.90;;;7.15;;
36411;SDS011;22445;52.100;5.176;2023-08-06T03:08:32;10.85;;;8.30;;
36411;SDS011;22445;52.100;5.176;2023-08-06T03:10:57;11.77;;;8.52;;
36411;SDS011;22445;52.100;5.176;2023-08-06T03:13:23;13.18;;;8.63;;
36411;SDS011;22445;52.100;5.176;2023-08-06T03:16:07;10.93;;;8.63;;
36411;SDS011;22445;52.100;5.176;2023-08-06T03:18:32;12.93;;;9.05;;
36411;SDS011;22445;52.100;5.176;2023-08-06T03:20:58;10.05;;;9.02;;
36411;SDS011;22445;52.100;5.176;2023-08-06T03:23:24;9.77;;;8.80;;
36411;SDS011;22445;52.100;5.176;2023-08-06T03:25:49;10.93;;;9.60;;
36411;SDS011;22445;52.100;5.176;2023-08-06T03:28:15;10.88;;;9.45;;
36411;SDS011;22445;52.100;5.176;2023-08-06T03:30:40;11.38;;;10.18;;
36411;SDS011;22445;52.100;5.176;2023-08-06T03:33:06;10.85;;;9.68;;
36411;SDS011;22445;52.100;5.176;2023-08-06T03:35:32;11.07;;;9.57;;
36411;SDS011;22445;52.100;5.176;2023-08-06T03:37:57;10.68;;;9.57;;
36411;SDS011;22445;52.100;5.176;2023-08-06T03:40:23;11.23;;;10.05;;
36411;SDS011;22445;52.100;5.176;2023-08-06T03:42:48;13.80;;;9.95;;
36411;SDS011;22445;52.100;5.176;2023-08-06T03:45:14;11.13;;;9.85;;
36411;SDS011;22445;52.100;5.176;2023-08-06T03:47:40;12.73;;;10.05;;
36411;SDS011;22445;52.100;5.176;2023-08-06T03:50:06;10.48;;;9.30;;
36411;SDS011;22445;52.100;5.176;2023-08-06T03:52:32;11.65;;;10.02;;
36411;SDS011;22445;52.100;5.176;2023-08-06T03:54:57;13.85;;;10.02;;
36411;SDS011;22445;52.100;5.176;2023-08-06T03:57:23;12.85;;;9.63;;
36411;SDS011;22445;52.100;5.176;2023-08-06T03:59:49;10.70;;;9.57;;
36411;SDS011;22445;52.100;5.176;2023-08-06T04:02:14;11.20;;;10.00;;
36411;SDS011;22445;52.100;5.176;2023-08-06T04:04:40;11.82;;;9.80;;
36411;SDS011;22445;52.100;5.176;2023-08-06T04:07:06;10.63;;;9.52;;
36411;SDS011;22445;52.100;5.176;2023-08-06T04:09:31;11.52;;;10.32;;
36411;SDS011;22445;52.100;5.176;2023-08-06T04:11:57;11.60;;;9.00;;
36411;SDS011;22445;52.100;5.176;2023-08-06T04:14:24;11.43;;;9.65;;
36411;SDS011;22445;52.100;5.176;2023-08-06T04:16:51;11.52;;;9.27;;
36411;SDS011;22445;52.100;5.176;2023-08-06T04:19:17;12.90;;;10.32;;
36411;SDS011;22445;52.100;5.176;2023-08-06T04:21:42;13.07;;;10.10;;
36411;SDS011;22445;52.100;5.176;2023-08-06T04:24:08;11.73;;;10.52;;
36411;SDS011;22445;52.100;5.176;2023-08-06T04:26:35;12.45;;;10.05;;
36411;SDS011;22445;52.100;5.176;2023-08-06T04:29:00;11.25;;;9.85;;
36411;SDS011;22445;52.100;5.176;2023-08-06T04:31:26;13.63;;;10.55;;
36411;SDS011;22445;52.100;5.176;2023-08-06T04:33:52;12.45;;;9.45;;
36411;SDS011;22445;52.100;5.176;2023-08-06T04:36:17;12.63;;;10.75;;
36411;SDS011;22445;52.100;5.176;2023-08-06T04:38:43;11.95;;;10.40;;
36411;SDS011;22445;52.100;5.176;2023-08-06T04:41:10;12.50;;;10.68;;
36411;SDS011;22445;52.100;5.176;2023-08-06T04:43:36;12.15;;;10.60;;
36411;SDS011;22445;52.100;5.176;2023-08-06T04:46:02;11.63;;;10.50;;
36411;SDS011;22445;52.100;5.176;2023-08-06T04:48:28;17.52;;;12.73;;
36411;SDS011;22445;52.100;5.176;2023-08-06T04:50:53;13.55;;;11.45;;
36411;SDS011;22445;52.100;5.176;2023-08-06T04:53:20;14.65;;;12.95;;
36411;SDS011;22445;52.100;5.176;2023-08-06T04:55:46;15.80;;;12.15;;
36411;SDS011;22445;52.100;5.176;2023-08-06T04:58:12;13.93;;;12.52;;
36411;SDS011;22445;52.100;5.176;2023-08-06T05:00:38;14.15;;;12.15;;
36411;SDS011;22445;52.100;5.176;2023-08-06T05:03:05;13.50;;;12.05;;
36411;SDS011;22445;52.100;5.176;2023-08-06T05:05:30;15.23;;;12.32;;
36411;SDS011;22445;52.100;5.176;2023-08-06T05:07:56;12.90;;;11.57;;
36411;SDS011;22445;52.100;5.176;2023-08-06T05:10:25;16.48;;;11.68;;
36411;SDS011;22445;52.100;5.176;2023-08-06T05:12:51;14.43;;;11.57;;
36411;SDS011;22445;52.100;5.176;2023-08-06T05:15:17;13.68;;;11.07;;
36411;SDS011;22445;52.100;5.176;2023-08-06T05:17:43;12.80;;;11.48;;
36411;SDS011;22445;52.100;5.176;2023-08-06T05:20:09;12.25;;;10.90;;
36411;SDS011;22445;52.100;5.176;2023-08-06T05:22:35;11.57;;;10.20;;
36411;SDS011;22445;52.100;5.176;2023-08-06T05:25:00;10.65;;;9.45;;
36411;SDS011;22445;52.100;5.176;2023-08-06T05:27:26;12.77;;;10.90;;
36411;SDS011;22445;52.100;5.176;2023-08-06T05:29:54;12.98;;;10.05;;
36411;SDS011;22445;52.100;5.176;2023-08-06T05:32:20;11.65;;;10.45;;
36411;SDS011;22445;52.100;5.176;2023-08-06T05:34:46;11.57;;;10.38;;
36411;SDS011;22445;52.100;5.176;2023-08-06T05:37:11;12.82;;;9.82;;
36411;SDS011;22445;52.100;5.176;2023-08-06T05:39:37;13.18;;;10.73;;
36411;SDS011;22445;52.100;5.176;2023-08-06T05:42:02;13.65;;;11.60;;
36411;SDS011;22445;52.100;5.176;2023-08-06T05:44:28;14.98;;;11.93;;
36411;SDS011;22445;52.100;5.176;2023-08-06T05:46:54;13.93;;;11.32;;
36411;SDS011;22445;52.100;5.176;2023-08-06T05:49:19;13.38;;;12.07;;
36411;SDS011;22445;52.100;5.176;2023-08-06T05:51:45;13.23;;;10.90;;
36411;SDS011;22445;52.100;5.176;2023-08-06T05:54:11;12.88;;;11.45;;
36411;SDS011;22445;52.100;5.176;2023-08-06T05:56:36;13.60;;;12.20;;
36411;SDS011;22445;52.100;5.176;2023-08-06T05:59:02;11.60;;;10.27;;
36411;SDS011;22445;52.100;5.176;2023-08-06T06:01:27;11.18;;;9.85;;
36411;SDS011;22445;52.100;5.176;2023-08-06T06:03:53;9.50;;;8.50;;
36411;SDS011;22445;52.100;5.176;2023-08-06T06:06:18;9.38;;;8.38;;
36411;SDS011;22445;52.100;5.176;2023-08-06T06:08:45;7.65;;;6.85;;
36411;SDS011;22445;52.100;5.176;2023-08-06T06:11:11;5.57;;;5.07;;
36411;SDS011;22445;52.100;5.176;2023-08-06T06:13:36;6.10;;;4.30;;
36411;SDS011;22445;52.100;5.176;2023-08-06T06:16:02;4.15;;;3.30;;
36411;SDS011;22445;52.100;5.176;2023-08-06T06:18:28;3.78;;;3.00;;
36411;SDS011;22445;52.100;5.176;2023-08-06T06:20:53;3.90;;;3.15;;
36411;SDS011;22445;52.100;5.176;2023-08-06T06:23:19;2.88;;;2.65;;
36411;SDS011;22445;52.100;5.176;2023-08-06T06:25:48;3.97;;;2.22;;
36411;SDS011;22445;52.100;5.176;2023-08-06T06:28:16;3.08;;;2.60;;
36411;SDS011;22445;52.100;5.176;2023-08-06T06:30:42;3.28;;;2.78;;
36411;SDS011;22445;52.100;5.176;2023-08-06T06:33:08;3.10;;;2.80;;
36411;SDS011;22445;52.100;5.176;2023-08-06T06:35:34;2.88;;;2.67;;
36411;SDS011;22445;52.100;5.176;2023-08-06T06:37:59;4.90;;;3.97;;
36411;SDS011;22445;52.100;5.176;2023-08-06T06:40:25;5.47;;;4.05;;
36411;SDS011;22445;52.100;5.176;2023-08-06T06:42:51;4.50;;;4.00;;
36411;SDS011;22445;52.100;5.176;2023-08-06T06:45:17;4.18;;;3.80;;
36411;SDS011;22445;52.100;5.176;2023-08-06T06:47:42;4.78;;;4.28;;
36411;SDS011;22445;52.100;5.176;2023-08-06T06:50:08;4.85;;;4.40;;
36411;SDS011;22445;52.100;5.176;2023-08-06T06:52:34;5.80;;;4.30;;
36411;SDS011;22445;52.100;5.176;2023-08-06T06:55:00;4.63;;;4.20;;
36411;SDS011;22445;52.100;5.176;2023-08-06T06:57:25;4.68;;;4.07;;
36411;SDS011;22445;52.100;5.176;2023-08-06T06:59:51;5.10;;;4.60;;
36411;SDS011;22445;52.100;5.176;2023-08-06T07:02:17;4.63;;;4.18;;
36411;SDS011;22445;52.100;5.176;2023-08-06T07:04:43;4.68;;;4.28;;
36411;SDS011;22445;52.100;5.176;2023-08-06T07:07:08;5.18;;;4.68;;
36411;SDS011;22445;52.100;5.176;2023-08-06T07:09:35;6.63;;;4.63;;
36411;SDS011;22445;52.100;5.176;2023-08-06T07:12:01;5.10;;;4.70;;
36411;SDS011;22445;52.100;5.176;2023-08-06T07:14:28;5.78;;;4.72;;
36411;SDS011;22445;52.100;5.176;2023-08-06T07:16:54;6.10;;;4.75;;
36411;SDS011;22445;52.100;5.176;2023-08-06T07:19:19;7.30;;;5.80;;
36411;SDS011;22445;52.100;5.176;2023-08-06T07:21:45;6.55;;;5.93;;
36411;SDS011;22445;52.100;5.176;2023-08-06T07:24:11;5.47;;;4.97;;
36411;SDS011;22445;52.100;5.176;2023-08-06T07:26:37;5.35;;;4.85;;
36411;SDS011;22445;52.100;5.176;2023-08-06T07:29:02;5.60;;;4.95;;
36411;SDS011;22445;52.100;5.176;2023-08-06T07:31:28;6.35;;;4.97;;
36411;SDS011;22445;52.100;5.176;2023-08-06T07:33:54;5.75;;;4.75;;
36411;SDS011;22445;52.100;5.176;2023-08-06T07:36:19;5.05;;;4.18;;
36411;SDS011;22445;52.100;5.176;2023-08-06T07:38:45;4.80;;;4.40;;
36411;SDS011;22445;52.100;5.176;2023-08-06T07:41:11;4.35;;;3.95;;
36411;SDS011;22445;52.100;5.176;2023-08-06T07:43:37;5.13;;;3.63;;
36411;SDS011;22445;52.100;5.176;2023-08-06T07:46:02;3.53;;;3.22;;
36411;SDS011;22445;52.100;5.176;2023-08-06T07:48:28;3.45;;;3.05;;
36411;SDS011;22445;52.100;5.176;2023-08-06T07:50:54;4.80;;;3.65;;
36411;SDS011;22445;52.100;5.176;2023-08-06T07:53:21;5.55;;;3.90;;
36411;SDS011;22445;52.100;5.176;2023-08-06T07:55:49;4.97;;;3.95;;
36411;SDS011;22445;52.100;5.176;2023-08-06T07:58:16;5.28;;;3.88;;
36411;SDS011;22445;52.100;5.176;2023-08-06T08:00:42;3.72;;;3.42;;
36411;SDS011;22445;52.100;5.176;2023-08-06T08:03:11;4.72;;;3.55;;
36411;SDS011;22445;52.100;5.176;2023-08-06T08:05:38;4.60;;;3.30;;
36411;SDS011;22445;52.100;5.176;2023-08-06T08:08:04;8.45;;;4.13;;
36411;SDS011;22445;52.100;5.176;2023-08-06T08:10:30;8.13;;;4.00;;
36411;SDS011;22445;52.100;5.176;2023-08-06T08:12:56;4.78;;;3.83;;
36411;SDS011;22445;52.100;5.176;2023-08-06T08:15:22;5.95;;;4.47;;
36411;SDS011;22445;52.100;5.176;2023-08-06T08:17:47;5.95;;;4.10;;
36411;SDS011;22445;52.100;5.176;2023-08-06T08:20:14;5.70;;;4.22;;
36411;SDS011;22445;52.100;5.176;2023-08-06T08:22:41;5.80;;;4.88;;
36411;SDS011;22445;52.100;5.176;2023-08-06T08:25:07;7.75;;;4.78;;
36411;SDS011;22445;52.100;5.176;2023-08-06T08:27:33;7.97;;;5.47;;
36411;SDS011;22445;52.100;5.176;2023-08-06T08:29:58;6.25;;;5.30;;
36411;SDS011;22445;52.100;5.176;2023-08-06T08:32:24;6.30;;;5.63;;
36411;SDS011;22445;52.100;5.176;2023-08-06T08:34:49;5.90;;;5.25;;
36411;SDS011;22445;52.100;5.176;2023-08-06T08:37:15;6.03;;;5.43;;
36411;SDS011;22445;52.100;5.176;2023-08-06T08:39:40;8.18;;;6.50;;
36411;SDS011;22445;52.100;5.176;2023-08-06T08:42:06;7.20;;;5.20;;
36411;SDS011;22445;52.100;5.176;2023-08-06T08:44:32;9.00;;;5.45;;
36411;SDS011;22445;52.100;5.176;2023-08-06T08:47:01;6.65;;;6.00;;
36411;SDS011;22445;52.100;5.176;2023-08-06T08:49:27;6.63;;;5.93;;
36411;SDS011;22445;52.100;5.176;2023-08-06T08:51:53;6.95;;;6.05;;
36411;SDS011;22445;52.100;5.176;2023-08-06T08:54:20;6.53;;;5.82;;
36411;SDS011;22445;52.100;5.176;2023-08-06T08:56:48;7.13;;;6.40;;
36411;SDS011;22445;52.100;5.176;2023-08-06T08:59:14;7.40;;;6.28;;
36411;SDS011;22445;52.100;5.176;2023-08-06T09:01:39;6.82;;;6.03;;
36411;SDS011;22445;52.100;5.176;2023-08-06T09:04:07;7.20;;;5.97;;
36411;SDS011;22445;52.100;5.176;2023-08-06T09:06:33;8.35;;;5.85;;
36411;SDS011;22445;52.100;5.176;2023-08-06T09:09:06;8.82;;;5.55;;
36411;SDS011;22445;52.100;5.176;2023-08-06T09:11:36;10.55;;;5.50;;
36411;SDS011;22445;52.100;5.176;2023-08-06T09:14:06;6.57;;;5.43;;
36411;SDS011;22445;52.100;5.176;2023-08-06T09:16:36;5.90;;;5.25;;
36411;SDS011;22445;52.100;5.176;2023-08-06T09:19:08;7.00;;;5.70;;
36411;SDS011;22445;52.100;5.176;2023-08-06T09:21:38;6.60;;;5.30;;
36411;SDS011;22445;52.100;5.176;2023-08-06T09:24:10;6.80;;;4.97;;
36411;SDS011;22445;52.100;5.176;2023-08-06T09:26:40;7.85;;;5.07;;
36411;SDS011;22445;52.100;5.176;2023-08-06T09:29:07;6.70;;;4.82;;
36411;SDS011;22445;52.100;5.176;2023-08-06T09:31:51;8.07;;;5.43;;
36411;SDS011;22445;52.100;5.176;2023-08-06T09:34:18;8.85;;;5.03;;
36411;SDS011;22445;52.100;5.176;2023-08-06T09:36:48;7.63;;;5.13;;
36411;SDS011;22445;52.100;5.176;2023-08-06T09:39:16;6.13;;;4.38;;
36411;SDS011;22445;52.100;5.176;2023-08-06T09:41:46;6.55;;;4.55;;
36411;SDS011;22445;52.100;5.176;2023-08-06T09:44:16;8.82;;;4.53;;
36411;SDS011;22445;52.100;5.176;2023-08-06T09:46:47;5.97;;;3.92;;
36411;SDS011;22445;52.100;5.176;2023-08-06T09:49:19;6.28;;;4.25;;
36411;SDS011;22445;52.100;5.176;2023-08-06T09:52:17;6.80;;;4.03;;
36411;SDS011;22445;52.100;5.176;2023-08-06T09:54:44;8.55;;;4.22;;
36411;SDS011;22445;52.100;5.176;2023-08-06T09:57:11;6.35;;;4.20;;
36411;SDS011;22445;52.100;5.176;2023-08-06T09:59:37;5.50;;;3.97;;
36411;SDS011;22445;52.100;5.176;2023-08-06T10:02:06;5.53;;;3.80;;
36411;SDS011;22445;52.100;5.176;2023-08-06T10:04:37;7.15;;;4.13;;
36411;SDS011;22445;52.100;5.176;2023-08-06T10:07:03;5.53;;;3.60;;
36411;SDS011;22445;52.100;5.176;2023-08-06T10:09:30;5.93;;;4.35;;
36411;SDS011;22445;52.100;5.176;2023-08-06T10:11:55;5.68;;;3.55;;
36411;SDS011;22445;52.100;5.176;2023-08-06T10:14:29;5.80;;;3.38;;
36411;SDS011;22445;52.100;5.176;2023-08-06T10:16:58;5.45;;;3.40;;
36411;SDS011;22445;52.100;5.176;2023-08-06T10:19:24;8.02;;;4.20;;
36411;SDS011;22445;52.100;5.176;2023-08-06T10:30:35;5.75;;;3.78;;
36411;SDS011;22445;52.100;5.176;2023-08-06T10:33:07;5.72;;;3.47;;
36411;SDS011;22445;52.100;5.176;2023-08-06T10:35:45;5.45;;;3.55;;
36411;SDS011;22445;52.100;5.176;2023-08-06T10:38:21;5.10;;;3.63;;
36411;SDS011;22445;52.100;5.176;2023-08-06T10:44:06;4.28;;;3.08;;
36411;SDS011;22445;52.100;5.176;2023-08-06T10:46:36;4.95;;;2.95;;
36411;SDS011;22445;52.100;5.176;2023-08-06T10:49:02;4.25;;;3.13;;
36411;SDS011;22445;52.100;5.176;2023-08-06T10:51:29;2.97;;;2.20;;
36411;SDS011;22445;52.100;5.176;2023-08-06T10:53:55;4.35;;;2.83;;
36411;SDS011;22445;52.100;5.176;2023-08-06T10:56:21;6.57;;;2.97;;
36411;SDS011;22445;52.100;5.176;2023-08-06T10:58:49;3.10;;;1.77;;
36411;SDS011;22445;52.100;5.176;2023-08-06T11:01:16;3.30;;;1.77;;
36411;SDS011;22445;52.100;5.176;2023-08-06T11:03:42;3.10;;;1.95;;
36411;SDS011;22445;52.100;5.176;2023-08-06T11:06:10;3.25;;;1.80;;
36411;SDS011;22445;52.100;5.176;2023-08-06T11:08:36;3.60;;;1.83;;
36411;SDS011;22445;52.100;5.176;2023-08-06T11:11:09;2.75;;;1.50;;
36411;SDS011;22445;52.100;5.176;2023-08-06T11:13:39;5.35;;;1.30;;
36411;SDS011;22445;52.100;5.176;2023-08-06T11:16:05;1.42;;;1.00;;
36411;SDS011;22445;52.100;5.176;2023-08-06T11:18:32;3.17;;;1.48;;
36411;SDS011;22445;52.100;5.176;2023-08-06T11:20:59;2.75;;;1.60;;
36411;SDS011;22445;52.100;5.176;2023-08-06T11:23:29;2.22;;;1.10;;
36411;SDS011;22445;52.100;5.176;2023-08-06T11:25:55;1.63;;;1.10;;
36411;SDS011;22445;52.100;5.176;2023-08-06T11:28:22;3.95;;;1.10;;
36411;SDS011;22445;52.100;5.176;2023-08-06T11:30:48;2.25;;;1.13;;
36411;SDS011;22445;52.100;5.176;2023-08-06T11:33:14;2.20;;;0.73;;
36411;SDS011;22445;52.100;5.176;2023-08-06T11:35:40;2.53;;;1.13;;
36411;SDS011;22445;52.100;5.176;2023-08-06T11:38:06;2.58;;;0.93;;
36411;SDS011;22445;52.100;5.176;2023-08-06T11:40:32;3.35;;;1.15;;
36411;SDS011;22445;52.100;5.176;2023-08-06T11:42:58;2.38;;;1.40;;
36411;SDS011;22445;52.100;5.176;2023-08-06T11:45:24;3.13;;;1.20;;
36411;SDS011;22445;52.100;5.176;2023-08-06T11:47:50;2.70;;;1.40;;
36411;SDS011;22445;52.100;5.176;2023-08-06T11:50:30;4.43;;;1.58;;
36411;SDS011;22445;52.100;5.176;2023-08-06T11:52:56;3.60;;;1.33;;
36411;SDS011;22445;52.100;5.176;2023-08-06T11:55:24;2.97;;;1.42;;
36411;SDS011;22445;52.100;5.176;2023-08-06T11:57:50;4.03;;;1.45;;
36411;SDS011;22445;52.100;5.176;2023-08-06T12:00:16;2.72;;;1.30;;
36411;SDS011;22445;52.100;5.176;2023-08-06T12:02:45;4.75;;;2.03;;
36411;SDS011;22445;52.100;5.176;2023-08-06T12:05:17;4.63;;;1.20;;
36411;SDS011;22445;52.100;5.176;2023-08-06T12:07:52;4.28;;;1.52;;
36411;SDS011;22445;52.100;5.176;2023-08-06T12:10:20;3.17;;;1.52;;
36411;SDS011;22445;52.100;5.176;2023-08-06T12:12:46;3.88;;;1.52;;
36411;SDS011;22445;52.100;5.176;2023-08-06T12:15:12;4.55;;;1.17;;
36411;SDS011;22445;52.100;5.176;2023-08-06T12:17:38;2.13;;;1.15;;
36411;SDS011;22445;52.100;5.176;2023-08-06T12:20:04;1.52;;;1.02;;
36411;SDS011;22445;52.100;5.176;2023-08-06T12:22:31;2.35;;;1.15;;
36411;SDS011;22445;52.100;5.176;2023-08-06T12:25:03;2.83;;;1.27;;
36411;SDS011;22445;52.100;5.176;2023-08-06T12:27:35;2.20;;;1.17;;
36411;SDS011;22445;52.100;5.176;2023-08-06T12:30:02;1.25;;;1.00;;
36411;SDS011;22445;52.100;5.176;2023-08-06T12:32:31;3.70;;;1.30;;
36411;SDS011;22445;52.100;5.176;2023-08-06T12:34:57;2.72;;;1.30;;
36411;SDS011;22445;52.100;5.176;2023-08-06T12:37:26;2.80;;;1.08;;
36411;SDS011;22445;52.100;5.176;2023-08-06T12:39:52;2.95;;;1.35;;
36411;SDS011;22445;52.100;5.176;2023-08-06T12:42:18;2.22;;;0.93;;
36411;SDS011;22445;52.100;5.176;2023-08-06T12:44:43;2.65;;;0.98;;
36411;SDS011;22445;52.100;5.176;2023-08-06T12:47:09;3.30;;;1.05;;
36411;SDS011;22445;52.100;5.176;2023-08-06T12:49:35;1.13;;;0.75;;
36411;SDS011;22445;52.100;5.176;2023-08-06T12:52:00;1.92;;;0.85;;
36411;SDS011;22445;52.100;5.176;2023-08-06T12:54:27;3.00;;;1.10;;
36411;SDS011;22445;52.100;5.176;2023-08-06T12:56:53;2.17;;;1.08;;
36411;SDS011;22445;52.100;5.176;2023-08-06T12:59:19;2.47;;;1.00;;
36411;SDS011;22445;52.100;5.176;2023-08-06T13:01:44;1.30;;;0.95;;
36411;SDS011;22445;52.100;5.176;2023-08-06T13:04:10;2.05;;;1.00;;
36411;SDS011;22445;52.100;5.176;2023-08-06T13:06:37;1.42;;;0.90;;
36411;SDS011;22445;52.100;5.176;2023-08-06T13:09:04;2.17;;;1.10;;
36411;SDS011;22445;52.100;5.176;2023-08-06T13:11:31;1.38;;;0.90;;
36411;SDS011;22445;52.100;5.176;2023-08-06T13:14:03;2.20;;;1.35;;
36411;SDS011;22445;52.100;5.176;2023-08-06T13:16:30;1.98;;;0.90;;
36411;SDS011;22445;52.100;5.176;2023-08-06T13:18:56;1.58;;;0.90;;
36411;SDS011;22445;52.100;5.176;2023-08-06T13:21:21;2.30;;;1.25;;
36411;SDS011;22445;52.100;5.176;2023-08-06T13:23:47;2.03;;;1.10;;
36411;SDS011;22445;52.100;5.176;2023-08-06T13:26:13;3.78;;;1.20;;
36411;SDS011;22445;52.100;5.176;2023-08-06T13:28:41;1.92;;;0.93;;
36411;SDS011;22445;52.100;5.176;2023-08-06T13:31:07;4.13;;;1.10;;
36411;SDS011;22445;52.100;5.176;2023-08-06T13:33:32;1.35;;;0.90;;
36411;SDS011;22445;52.100;5.176;2023-08-06T13:35:58;2.13;;;1.08;;
36411;SDS011;22445;52.100;5.176;2023-08-06T13:38:23;1.98;;;1.20;;
36411;SDS011;22445;52.100;5.176;2023-08-06T13:40:49;1.85;;;1.00;;
36411;SDS011;22445;52.100;5.176;2023-08-06T13:43:15;1.35;;;0.93;;
36411;SDS011;22445;52.100;5.176;2023-08-06T13:45:42;2.67;;;1.20;;
36411;SDS011;22445;52.100;5.176;2023-08-06T13:48:07;2.80;;;1.40;;
36411;SDS011;22445;52.100;5.176;2023-08-06T13:50:34;2.67;;;1.30;;
36411;SDS011;22445;52.100;5.176;2023-08-06T13:52:59;3.15;;;1.15;;
36411;SDS011;22445;52.100;5.176;2023-08-06T13:55:25;1.67;;;1.23;;
36411;SDS011;22445;52.100;5.176;2023-08-06T13:57:51;2.28;;;1.17;;
36411;SDS011;22445;52.100;5.176;2023-08-06T14:00:17;2.85;;;1.50;;
36411;SDS011;22445;52.100;5.176;2023-08-06T14:02:43;2.05;;;1.40;;
36411;SDS011;22445;52.100;5.176;2023-08-06T14:05:12;3.22;;;1.40;;
36411;SDS011;22445;52.100;5.176;2023-08-06T14:07:38;3.45;;;1.45;;
36411;SDS011;22445;52.100;5.176;2023-08-06T14:10:04;3.90;;;1.27;;
36411;SDS011;22445;52.100;5.176;2023-08-06T14:12:30;2.22;;;1.45;;
36411;SDS011;22445;52.100;5.176;2023-08-06T14:14:56;4.53;;;1.80;;
36411;SDS011;22445;52.100;5.176;2023-08-06T14:17:22;3.70;;;1.52;;
36411;SDS011;22445;52.100;5.176;2023-08-06T14:19:48;2.13;;;1.45;;
36411;SDS011;22445;52.100;5.176;2023-08-06T14:22:13;2.85;;;1.20;;
36411;SDS011;22445;52.100;5.176;2023-08-06T14:24:39;2.47;;;1.00;;
36411;SDS011;22445;52.100;5.176;2023-08-06T14:27:05;2.60;;;1.05;;
36411;SDS011;22445;52.100;5.176;2023-08-06T14:29:31;2.40;;;1.02;;
36411;SDS011;22445;52.100;5.176;2023-08-06T14:31:57;4.28;;;1.40;;
36411;SDS011;22445;52.100;5.176;2023-08-06T14:34:22;1.58;;;1.00;;
36411;SDS011;22445;52.100;5.176;2023-08-06T14:36:48;3.65;;;1.42;;
36411;SDS011;22445;52.100;5.176;2023-08-06T14:39:13;2.35;;;1.33;;
36411;SDS011;22445;52.100;5.176;2023-08-06T14:41:39;1.73;;;1.15;;
36411;SDS011;22445;52.100;5.176;2023-08-06T14:44:05;2.25;;;1.23;;
36411;SDS011;22445;52.100;5.176;2023-08-06T14:46:32;3.90;;;1.00;;
36411;SDS011;22445;52.100;5.176;2023-08-06T14:48:58;4.93;;;1.02;;
36411;SDS011;22445;52.100;5.176;2023-08-06T14:51:23;5.95;;;1.15;;
36411;SDS011;22445;52.100;5.176;2023-08-06T14:53:49;5.65;;;1.00;;
36411;SDS011;22445;52.100;5.176;2023-08-06T14:56:15;6.85;;;1.40;;
36411;SDS011;22445;52.100;5.176;2023-08-06T14:58:41;4.03;;;0.88;;
36411;SDS011;22445;52.100;5.176;2023-08-06T15:01:07;5.13;;;0.77;;
36411;SDS011;22445;52.100;5.176;2023-08-06T15:03:33;6.43;;;1.23;;
36411;SDS011;22445;52.100;5.176;2023-08-06T15:05:58;4.70;;;1.02;;